메인 페이지
METAR-TAF:

METAR-TAF

공항 :

물탄 국제공항

물탄, 파키스탄

위도: 30-12-12N, 경도: 71-25-09E, 고도: 122m

현재 날씨관측

예보는 34분 전, 15:00시(UTC)에 발표되었습니다.
4kt
온도 15°C
습도 77%
기압 1013 hPa
시정: 1500m
고도 10000ft 상공 구름 많음
연기

METAR: OPMT 111500Z 36004KT 1500 FU BKN100 15/11 Q1013 NOSIG

시각: 20:34 (15:34 UTC)

예보

예보는 5 시간 19분 전, 10:15시(UTC)에 발표되었습니다.
예보 대상 시간: 11일 12시부터 12일 06시까지 (UTC)
5kt
시정: 3500m
고도 4000ft 상공 구름 보통
고도 10000ft 상공 구름 많음
연기
확률 30% :
일시적
12일 00시부터 12일 04시까지 (UTC)
25kt
시정: 1500m
고도 3000ft 상공 구름 조금, 적란운.
고도 4000ft 상공 구름 보통
고도 10000ft 상공 흐림
뇌우, 비

TAF: OPMT 111015Z 1112/1206 36005KT 3500 FU SCT040 BKN100 TN08/1201Z PROB30 TEMPO 1200/1204 36025KT 1500 TSRA FEW030CB SCT040 OVC100

4,000개 이상의 공항 관측 자료 및 예보 (METAR 및 TAF 보고).

지도상에서 검색 가능한 기상관측소가 노란 점과 빨간 점으로 표시되어 있습니다.

기상관측소 명을 보려면 표시 위로 마우스를 이동하세요.

날씨 관측과 예보를 보려면 클릭하세요.

지도 변경 : 확대하려면 엑스 표시가 있는 녹색 버튼, 축소하려면 빼기 표시가 있는 녹색 버튼, 다음 페이지의 지도를 보려면 녹색 화살표를 클릭하세요.


METAR-TAF: